createdAt,value
2023-02-22T00:02:27.713Z,18.40
2023-02-22T00:04:56.734Z,18.00
2023-02-22T00:07:25.222Z,17.90
2023-02-22T00:09:53.261Z,18.45
2023-02-22T00:12:22.280Z,18.08
2023-02-22T00:14:51.511Z,17.73
2023-02-22T00:17:20.709Z,17.98
2023-02-22T00:20:15.463Z,18.65
2023-02-22T00:22:49.135Z,19.80
2023-02-22T00:25:22.770Z,19.27
2023-02-22T00:27:57.234Z,18.33
2023-02-22T00:30:27.952Z,17.38
2023-02-22T00:32:57.202Z,18.83
2023-02-22T00:35:28.980Z,18.77
2023-02-22T00:38:00.229Z,18.23
2023-02-22T00:40:34.092Z,17.67
2023-02-22T00:43:09.222Z,18.23
2023-02-22T00:45:37.965Z,18.75
2023-02-22T00:48:07.562Z,18.27
2023-02-22T00:50:38.328Z,18.08
2023-02-22T00:53:08.106Z,17.42
2023-02-22T00:55:38.572Z,18.92
2023-02-22T00:58:10.319Z,17.42
2023-02-22T01:00:42.338Z,19.00
2023-02-22T01:03:13.193Z,18.02
2023-02-22T01:05:41.252Z,18.08
2023-02-22T01:08:11.374Z,17.70
2023-02-22T01:10:42.303Z,19.90
2023-02-22T01:13:12.610Z,20.30
2023-02-22T01:15:43.134Z,18.05
2023-02-22T01:18:13.163Z,18.20
2023-02-22T01:20:41.047Z,19.65
2023-02-22T01:23:10.888Z,19.17
2023-02-22T01:25:38.744Z,18.20
2023-02-22T01:28:08.163Z,19.45
2023-02-22T01:40:10.234Z,18.00
2023-02-22T01:42:39.989Z,17.52
2023-02-22T01:45:42.328Z,17.08
2023-02-22T01:48:45.687Z,16.67
2023-02-22T01:51:21.246Z,17.90
2023-02-22T01:54:18.352Z,16.17
2023-02-22T01:57:00.366Z,16.52
2023-02-22T01:59:33.406Z,16.33
2023-02-22T02:02:01.877Z,16.73
2023-02-22T02:04:30.290Z,16.02
2023-02-22T02:07:03.174Z,15.65
2023-02-22T02:09:42.530Z,17.02
2023-02-22T02:12:15.416Z,15.40
2023-02-22T02:14:44.455Z,15.45
2023-02-22T02:17:15.816Z,16.80
2023-02-22T02:19:52.671Z,15.75
2023-02-22T02:22:43.671Z,16.30
2023-02-22T02:26:00.760Z,16.50
2023-02-22T02:29:22.203Z,15.82
2023-02-22T02:32:11.907Z,16.07
2023-02-22T02:35:22.268Z,16.23
2023-02-22T02:38:11.076Z,14.27
2023-02-22T02:41:19.632Z,14.98
2023-02-22T02:43:59.661Z,15.32
2023-02-22T02:46:46.095Z,13.80
2023-02-22T02:49:20.863Z,14.95
2023-02-22T02:51:54.140Z,14.98
2023-02-22T02:54:24.309Z,14.07
2023-02-22T02:56:55.073Z,14.82
2023-02-22T02:59:34.744Z,14.60
2023-02-22T03:02:30.598Z,14.20
2023-02-22T03:05:13.453Z,13.82
2023-02-22T03:08:32.187Z,14.10
2023-02-22T03:11:04.393Z,14.53
2023-02-22T03:13:58.062Z,12.80
2023-02-22T03:16:52.882Z,13.82
2023-02-22T03:20:09.915Z,12.05
2023-02-22T03:22:58.051Z,13.65
2023-02-22T03:25:37.469Z,13.63
2023-02-22T03:28:12.215Z,12.73
2023-02-22T03:30:49.113Z,13.27
2023-02-22T03:33:36.689Z,14.07
2023-02-22T03:36:13.664Z,13.55
2023-02-22T03:38:44.465Z,12.83
2023-02-22T03:41:20.514Z,14.07
2023-02-22T03:43:55.741Z,13.23
2023-02-22T03:46:24.854Z,13.48
2023-02-22T03:49:11.554Z,12.55
2023-02-22T03:51:41.554Z,11.90
2023-02-22T03:54:16.574Z,13.13
2023-02-22T03:57:11.603Z,13.68
2023-02-22T03:59:43.359Z,13.18
2023-02-22T04:02:11.173Z,12.48
2023-02-22T04:04:39.152Z,13.05
2023-02-22T04:07:09.110Z,14.10
2023-02-22T04:09:37.374Z,14.18
2023-02-22T04:12:05.713Z,13.18
2023-02-22T04:14:45.077Z,13.68
2023-02-22T04:17:12.851Z,13.50
2023-02-22T04:19:40.860Z,13.70
2023-02-22T04:22:08.864Z,13.90
2023-02-22T04:24:36.550Z,13.63
2023-02-22T04:27:04.477Z,13.13
2023-02-22T04:29:34.723Z,12.95
2023-02-22T04:32:04.628Z,13.40
2023-02-22T04:34:32.817Z,12.75
2023-02-22T04:37:00.729Z,12.00
2023-02-22T04:39:29.856Z,13.15
2023-02-22T04:41:57.795Z,13.57
2023-02-22T04:44:26.707Z,12.60
2023-02-22T04:46:54.709Z,12.65
2023-02-22T04:49:24.160Z,11.88
2023-02-22T04:51:53.588Z,12.70
2023-02-22T04:54:26.848Z,13.30
2023-02-22T04:56:54.834Z,12.52
2023-02-22T04:59:23.585Z,12.73
2023-02-22T05:02:01.070Z,13.20
2023-02-22T05:04:28.945Z,13.88
2023-02-22T05:06:56.917Z,11.70
2023-02-22T05:09:24.973Z,13.13
2023-02-22T05:11:52.985Z,11.55
2023-02-22T05:14:22.101Z,12.00
2023-02-22T05:17:14.013Z,12.40
2023-02-22T05:19:42.909Z,12.70
2023-02-22T05:22:10.736Z,13.30
2023-02-22T05:24:40.362Z,14.25
2023-02-22T05:27:08.381Z,16.73
2023-02-22T05:29:41.083Z,16.17
2023-02-22T05:32:11.400Z,16.15
2023-02-22T05:34:39.345Z,15.75
2023-02-22T05:37:07.798Z,15.95
2023-02-22T05:39:35.664Z,15.95
2023-02-22T05:42:03.817Z,17.23
2023-02-22T05:44:34.021Z,18.30
2023-02-22T05:47:03.363Z,19.08
2023-02-22T05:49:31.287Z,18.02
2023-02-22T05:52:00.014Z,18.13
2023-02-22T05:54:29.100Z,20.15
2023-02-22T05:56:57.220Z,20.52
2023-02-22T05:59:25.108Z,18.38
2023-02-22T06:01:53.147Z,18.52
2023-02-22T06:04:21.801Z,19.27
2023-02-22T06:06:49.745Z,18.77
2023-02-22T06:09:17.947Z,16.98
2023-02-22T06:11:46.558Z,19.95
2023-02-22T06:14:14.467Z,19.35
2023-02-22T06:16:42.316Z,20.58
2023-02-22T06:19:10.029Z,21.85
2023-02-22T06:21:37.981Z,22.60
2023-02-22T06:24:06.364Z,23.02
2023-02-22T06:26:36.414Z,22.35
2023-02-22T06:29:06.054Z,20.15
2023-02-22T06:31:36.780Z,20.40
2023-02-22T06:34:08.408Z,20.90
2023-02-22T06:36:36.269Z,21.08
2023-02-22T06:39:05.465Z,22.38
2023-02-22T06:41:37.940Z,20.77
2023-02-22T06:44:13.449Z,21.85
2023-02-22T06:46:49.081Z,20.67
2023-02-22T06:49:17.650Z,20.92
2023-02-22T06:51:46.951Z,19.17
2023-02-22T06:54:15.580Z,21.25
2023-02-22T06:56:43.658Z,21.73
2023-02-22T06:59:11.491Z,21.95
2023-02-22T07:01:43.091Z,21.70
2023-02-22T07:04:16.981Z,20.83
2023-02-22T07:06:52.127Z,21.35
2023-02-22T07:09:20.057Z,21.80
2023-02-22T07:11:48.394Z,19.58
2023-02-22T07:14:18.726Z,20.27
2023-02-22T07:16:46.714Z,20.50
2023-02-22T07:19:15.090Z,20.52
2023-02-22T07:21:43.427Z,19.92
2023-02-22T07:24:11.334Z,20.20
2023-02-22T07:26:43.219Z,19.83
2023-02-22T07:29:12.687Z,20.27
2023-02-22T07:31:40.520Z,20.90
2023-02-22T07:34:08.639Z,20.98
2023-02-22T07:36:36.420Z,20.73
2023-02-22T07:39:04.240Z,20.63
2023-02-22T07:41:32.893Z,20.38
2023-02-22T07:44:01.431Z,22.60
2023-02-22T07:46:30.024Z,20.92
2023-02-22T07:48:57.780Z,21.27
2023-02-22T07:51:25.714Z,21.95
2023-02-22T07:53:54.470Z,20.25
2023-02-22T07:56:22.395Z,21.20
2023-02-22T07:58:50.271Z,23.25
2023-02-22T08:01:19.819Z,21.08
2023-02-22T08:03:47.967Z,21.73
2023-02-22T08:06:15.787Z,20.65
2023-02-22T08:08:43.590Z,20.63
2023-02-22T08:11:11.335Z,22.00
2023-02-22T08:13:39.900Z,20.73
2023-02-22T08:16:08.082Z,20.65
2023-02-22T08:18:38.377Z,20.50
2023-02-22T08:21:06.291Z,20.42
2023-02-22T08:23:34.936Z,20.33
2023-02-22T08:26:08.629Z,19.27
2023-02-22T08:28:36.842Z,20.30
2023-02-22T08:31:07.789Z,19.02
2023-02-22T08:33:36.099Z,20.05
2023-02-22T08:36:04.214Z,19.00
2023-02-22T08:38:34.153Z,27.30
2023-02-22T08:41:01.992Z,34.20
2023-02-22T08:43:29.927Z,26.25
2023-02-22T08:45:58.079Z,22.55
2023-02-22T08:48:26.066Z,20.73
2023-02-22T08:50:55.131Z,18.35
2023-02-22T08:53:23.428Z,18.20
2023-02-22T08:55:51.911Z,17.40
2023-02-22T08:58:19.946Z,17.27
2023-02-22T09:00:48.044Z,17.00
2023-02-22T09:03:16.281Z,15.85
2023-02-22T09:05:45.889Z,16.20
2023-02-22T09:08:13.920Z,16.20
2023-02-22T09:10:42.151Z,15.90
2023-02-22T09:13:09.852Z,14.15
2023-02-22T09:15:39.949Z,13.95
2023-02-22T09:18:11.329Z,12.32
2023-02-22T09:20:39.321Z,13.80
2023-02-22T09:23:09.951Z,13.68
2023-02-22T09:25:41.136Z,13.20
2023-02-22T09:28:09.493Z,12.57
2023-02-22T09:30:37.690Z,12.70
2023-02-22T09:33:12.656Z,12.90
2023-02-22T09:35:48.081Z,16.30
2023-02-22T09:38:19.173Z,15.95
2023-02-22T09:40:53.281Z,18.98
2023-02-22T09:43:40.815Z,17.00
2023-02-22T09:46:56.526Z,15.35
2023-02-22T09:49:47.471Z,15.52
2023-02-22T09:52:24.498Z,15.13
2023-02-22T09:55:18.116Z,13.75
2023-02-22T09:57:47.849Z,14.30
2023-02-22T10:00:22.331Z,20.25
2023-02-22T10:02:58.298Z,18.27
2023-02-22T10:05:34.481Z,16.15
2023-02-22T10:08:06.528Z,16.33
2023-02-22T10:10:39.985Z,17.65
2023-02-22T10:13:43.133Z,21.90
2023-02-22T10:16:31.504Z,23.27
2023-02-22T10:19:21.374Z,27.77
2023-02-22T10:22:05.326Z,30.52
2023-02-22T10:24:58.345Z,22.30
2023-02-22T10:27:52.952Z,20.15
2023-02-22T10:30:25.989Z,20.13
2023-02-22T10:33:22.915Z,22.83
2023-02-22T10:35:53.205Z,25.63
2023-02-22T10:38:25.061Z,27.27
2023-02-22T10:41:11.205Z,27.15
2023-02-22T10:43:44.045Z,21.23
2023-02-22T10:46:16.858Z,19.55
2023-02-22T10:48:47.830Z,17.70
2023-02-22T10:51:15.562Z,16.20
2023-02-22T10:53:44.338Z,15.27
2023-02-22T10:56:16.946Z,14.65
2023-02-22T10:59:02.688Z,14.20
2023-02-22T11:01:34.103Z,12.60
2023-02-22T11:04:21.883Z,13.00
2023-02-22T11:07:01.936Z,13.15
2023-02-22T11:09:29.699Z,11.60
2023-02-22T11:12:19.560Z,10.85
2023-02-22T11:14:48.335Z,11.85
2023-02-22T11:17:24.911Z,11.73
2023-02-22T11:19:53.539Z,12.03
2023-02-22T11:22:37.531Z,13.25
2023-02-22T11:25:07.721Z,12.68
2023-02-22T11:27:43.918Z,12.20
2023-02-22T11:30:35.262Z,11.43
2023-02-22T11:33:25.044Z,12.85
2023-02-22T11:35:57.131Z,13.60
2023-02-22T11:38:29.754Z,15.23
2023-02-22T11:41:10.268Z,15.13
2023-02-22T11:43:38.286Z,18.30
2023-02-22T11:46:21.707Z,16.67
2023-02-22T11:49:02.543Z,14.88
2023-02-22T11:51:38.997Z,13.57
2023-02-22T11:54:25.649Z,13.63
2023-02-22T11:57:18.181Z,16.15
2023-02-22T12:00:16.747Z,14.55
2023-02-22T12:02:56.879Z,15.30
2023-02-22T12:05:37.373Z,14.45
2023-02-22T12:08:20.074Z,14.05
2023-02-22T12:10:51.127Z,13.45
2023-02-22T12:13:53.087Z,14.68
2023-02-22T12:17:02.782Z,14.02
2023-02-22T12:19:39.833Z,13.88
2023-02-22T12:22:14.966Z,15.00
2023-02-22T12:24:51.586Z,15.73
2023-02-22T12:27:33.782Z,15.35
2023-02-22T12:30:18.501Z,14.57
2023-02-22T12:32:55.577Z,15.40
2023-02-22T12:35:37.036Z,18.13
2023-02-22T12:38:18.241Z,17.50
2023-02-22T12:41:09.035Z,8.30
2023-02-22T12:43:45.022Z,14.60
2023-02-22T12:46:20.600Z,17.05
2023-02-22T12:48:57.107Z,16.58
2023-02-22T12:51:32.357Z,16.60
2023-02-22T12:54:34.577Z,14.77
2023-02-22T12:57:29.023Z,14.65
2023-02-22T13:00:04.250Z,15.57
2023-02-22T13:02:39.940Z,14.73
2023-02-22T13:05:15.606Z,13.93
2023-02-22T13:07:55.389Z,13.02
2023-02-22T13:10:35.412Z,15.77
2023-02-22T13:13:31.848Z,15.63
2023-02-22T13:16:32.055Z,17.48
2023-02-22T13:19:09.107Z,17.50
2023-02-22T13:21:53.478Z,16.63
2023-02-22T13:24:27.574Z,15.18
2023-02-22T13:27:12.124Z,14.57
2023-02-22T13:29:44.970Z,14.38
2023-02-22T13:32:37.436Z,14.13
2023-02-22T13:35:26.823Z,15.82
2023-02-22T13:38:39.564Z,23.25
2023-02-22T13:41:17.081Z,27.13
2023-02-22T13:44:00.201Z,24.00
2023-02-22T13:47:10.390Z,21.80
2023-02-22T13:49:56.608Z,15.98
2023-02-22T13:52:28.026Z,14.38
2023-02-22T13:55:11.429Z,15.50
2023-02-22T13:57:51.981Z,20.38
2023-02-22T14:00:23.972Z,27.85
2023-02-22T14:03:12.981Z,23.08
2023-02-22T14:05:47.035Z,20.90
2023-02-22T14:08:22.087Z,20.10
2023-02-22T14:10:57.330Z,19.05
2023-02-22T14:13:27.830Z,17.90
2023-02-22T14:16:02.549Z,16.27
2023-02-22T14:18:46.861Z,14.85
2023-02-22T14:21:22.712Z,17.55
2023-02-22T14:23:55.961Z,22.52
2023-02-22T14:26:54.520Z,23.50
2023-02-22T14:29:22.847Z,21.10
2023-02-22T14:31:51.002Z,23.90
2023-02-22T14:34:49.763Z,20.30
2023-02-22T14:37:22.050Z,18.35
2023-02-22T14:40:02.390Z,29.27
2023-02-22T14:42:41.974Z,24.50
2023-02-22T14:45:09.812Z,19.60
2023-02-22T14:47:49.765Z,21.90
2023-02-22T14:50:25.300Z,20.17
2023-02-22T14:53:20.918Z,15.85
2023-02-22T14:56:04.246Z,15.57
2023-02-22T14:58:47.347Z,14.95
2023-02-22T15:04:29.045Z,28.63
2023-02-22T15:07:00.149Z,29.10
2023-02-22T15:09:34.713Z,19.45
2023-02-22T15:12:07.780Z,17.25
2023-02-22T15:14:39.119Z,15.80
2023-02-22T15:17:18.698Z,14.68
2023-02-22T15:19:48.978Z,11.85
2023-02-22T15:22:26.434Z,10.77
2023-02-22T15:25:06.048Z,10.07
2023-02-22T15:27:38.159Z,11.15
2023-02-22T15:30:30.322Z,13.65
2023-02-22T15:33:15.358Z,14.52
2023-02-22T15:35:44.040Z,12.93
2023-02-22T15:38:12.133Z,12.48
2023-02-22T15:40:43.524Z,11.80
2023-02-22T15:43:25.223Z,12.05
2023-02-22T15:45:56.922Z,11.15
2023-02-22T15:48:27.869Z,11.90
2023-02-22T15:51:17.418Z,12.45
2023-02-22T15:53:50.997Z,13.25
2023-02-22T15:56:26.168Z,17.25
2023-02-22T15:59:12.395Z,15.70
2023-02-22T16:01:46.444Z,13.38
2023-02-22T16:04:28.046Z,14.75
2023-02-22T16:07:17.164Z,12.88
2023-02-22T16:09:50.679Z,15.50
2023-02-22T16:12:29.201Z,21.02
2023-02-22T16:14:59.415Z,21.23
2023-02-22T16:17:44.594Z,16.45
2023-02-22T16:20:25.111Z,16.40
2023-02-22T16:22:58.107Z,13.88
2023-02-22T16:25:33.185Z,13.18
2023-02-22T16:28:06.571Z,14.95
2023-02-22T16:30:39.786Z,13.63
2023-02-22T16:33:16.746Z,13.50
2023-02-22T16:35:52.513Z,15.25
2023-02-22T16:38:21.347Z,13.73
2023-02-22T16:40:55.712Z,12.60
2023-02-22T16:43:27.767Z,12.57
2023-02-22T16:45:56.101Z,12.25
2023-02-22T16:48:26.776Z,10.05
2023-02-22T16:50:57.217Z,11.23
2023-02-22T16:53:29.017Z,9.90
2023-02-22T16:56:09.569Z,8.85
2023-02-22T16:58:41.587Z,8.70
2023-02-22T17:01:09.852Z,9.93
2023-02-22T17:03:37.633Z,9.50
2023-02-22T17:06:06.001Z,9.68
2023-02-22T17:08:33.837Z,8.93
2023-02-22T17:11:01.932Z,9.50
2023-02-22T17:13:29.915Z,9.32
2023-02-22T17:15:58.012Z,9.95
2023-02-22T17:18:29.114Z,10.32
2023-02-22T17:20:58.052Z,10.52
2023-02-22T17:23:27.863Z,8.90
2023-02-22T17:25:59.378Z,11.55
2023-02-22T17:28:27.452Z,12.77
2023-02-22T17:31:01.813Z,14.98
2023-02-22T17:33:37.153Z,15.30
2023-02-22T17:36:05.463Z,12.10
2023-02-22T17:38:34.938Z,11.65
2023-02-22T17:41:03.578Z,10.18
2023-02-22T17:43:31.399Z,10.43
2023-02-22T17:45:59.582Z,9.50
2023-02-22T17:48:36.309Z,9.52
2023-02-22T17:51:11.003Z,8.90
2023-02-22T17:53:41.140Z,8.68
2023-02-22T17:56:12.501Z,7.95
2023-02-22T17:58:43.219Z,8.55
2023-02-22T18:01:30.282Z,8.25
2023-02-22T18:04:01.390Z,7.20
2023-02-22T18:06:32.974Z,8.35
2023-02-22T18:09:10.934Z,9.95
2023-02-22T18:11:45.535Z,9.02
2023-02-22T18:14:17.012Z,10.48
2023-02-22T18:16:47.511Z,10.80
2023-02-22T18:19:22.992Z,9.18
2023-02-22T18:21:54.365Z,12.07
2023-02-22T18:24:27.136Z,12.00
2023-02-22T18:26:54.778Z,10.30
2023-02-22T18:29:22.709Z,9.85
2023-02-22T18:31:53.895Z,9.88
2023-02-22T18:34:25.090Z,8.60
2023-02-22T18:36:53.064Z,8.27
2023-02-22T18:39:20.760Z,7.78
2023-02-22T18:41:51.458Z,7.85
2023-02-22T18:44:20.832Z,7.93
2023-02-22T18:46:48.581Z,7.50
2023-02-22T18:49:17.407Z,7.78
2023-02-22T18:51:46.778Z,7.82
2023-02-22T18:54:14.909Z,8.65
2023-02-22T18:56:42.859Z,7.95
2023-02-22T18:59:13.340Z,12.07
2023-02-22T19:01:42.082Z,37.40
2023-02-22T19:04:10.707Z,33.97
2023-02-22T19:06:39.784Z,28.27
2023-02-22T19:09:08.849Z,21.48
2023-02-22T19:11:37.501Z,18.00
2023-02-22T19:14:05.488Z,15.60
2023-02-22T19:16:33.517Z,13.77
2023-02-22T19:19:02.616Z,13.40
2023-02-22T19:21:31.789Z,11.65
2023-02-22T19:24:02.791Z,10.18
2023-02-22T19:26:30.969Z,10.77
2023-02-22T19:29:05.120Z,11.82
2023-02-22T19:31:34.099Z,10.10
2023-02-22T19:34:10.542Z,9.52
2023-02-22T19:36:47.684Z,9.57
2023-02-22T19:39:17.812Z,10.32
2023-02-22T19:41:46.408Z,13.98
2023-02-22T19:44:17.802Z,19.05
2023-02-22T19:46:47.382Z,18.88
2023-02-22T19:49:16.330Z,17.20
2023-02-22T19:51:45.799Z,15.32
2023-02-22T19:54:17.646Z,12.95
2023-02-22T19:56:51.259Z,16.33
2023-02-22T19:59:23.112Z,13.13
2023-02-22T20:01:55.890Z,13.60
2023-02-22T20:04:25.492Z,13.50
2023-02-22T20:06:54.866Z,14.02
2023-02-22T20:09:30.154Z,14.07
2023-02-22T20:11:58.799Z,12.73
2023-02-22T20:14:28.769Z,12.32
2023-02-22T20:16:58.630Z,16.45
2023-02-22T20:19:28.272Z,16.75
2023-02-22T20:21:56.866Z,17.88
2023-02-22T20:24:25.679Z,18.45
2023-02-22T20:26:55.947Z,16.88
2023-02-22T20:29:29.918Z,16.45
2023-02-22T20:32:03.298Z,14.20
2023-02-22T20:34:33.734Z,13.93
2023-02-22T20:37:02.240Z,13.25
2023-02-22T20:39:30.224Z,13.30
2023-02-22T20:42:03.071Z,11.13
2023-02-22T20:44:31.105Z,11.02
2023-02-22T20:46:59.104Z,11.65
2023-02-22T20:49:27.990Z,12.05
2023-02-22T20:51:55.724Z,10.38
2023-02-22T20:54:31.001Z,10.93
2023-02-22T20:57:07.390Z,11.27
2023-02-22T20:59:35.490Z,10.73
2023-02-22T21:02:05.287Z,10.85
2023-02-22T21:04:33.249Z,10.40
2023-02-22T21:07:03.953Z,9.85
2023-02-22T21:09:33.946Z,11.77
2023-02-22T21:12:01.940Z,10.90
2023-02-22T21:14:32.701Z,11.32
2023-02-22T21:17:05.953Z,10.48
2023-02-22T21:19:34.608Z,10.90
2023-02-22T21:22:08.388Z,10.60
2023-02-22T21:24:37.095Z,12.32
2023-02-22T21:27:07.118Z,11.05
2023-02-22T21:29:35.667Z,10.90
2023-02-22T21:32:04.271Z,11.13
2023-02-22T21:34:32.480Z,11.70
2023-02-22T21:37:02.643Z,10.32
2023-02-22T21:39:39.087Z,10.70
2023-02-22T21:42:22.484Z,10.27
2023-02-22T21:45:20.858Z,12.80
2023-02-22T21:47:54.713Z,15.48
2023-02-22T21:50:31.346Z,15.68
2023-02-22T21:52:59.480Z,14.00
2023-02-22T21:55:27.338Z,11.70
2023-02-22T21:58:05.105Z,10.05
2023-02-22T22:00:39.273Z,9.60
2023-02-22T22:03:20.660Z,9.10
2023-02-22T22:05:48.957Z,10.57
2023-02-22T22:08:19.939Z,9.93
2023-02-22T22:11:09.443Z,9.45
2023-02-22T22:13:45.587Z,10.57
2023-02-22T22:16:23.375Z,9.35
2023-02-22T22:18:54.779Z,9.07
2023-02-22T22:24:16.832Z,11.48
2023-02-22T22:26:58.003Z,15.70
2023-02-22T22:29:39.178Z,17.65
2023-02-22T22:32:10.841Z,16.10
2023-02-22T22:34:49.501Z,13.88
2023-02-22T22:37:28.510Z,13.43
2023-02-22T22:40:12.254Z,12.95
2023-02-22T22:42:47.487Z,10.32
2023-02-22T22:45:22.944Z,10.68
2023-02-22T22:47:59.399Z,10.57
2023-02-22T22:50:27.434Z,11.30
2023-02-22T22:53:23.609Z,10.65
2023-02-22T22:55:54.500Z,10.25
2023-02-22T22:58:48.702Z,10.60
2023-02-22T23:01:39.788Z,10.85
2023-02-22T23:04:19.488Z,11.93
2023-02-22T23:07:11.142Z,11.70
2023-02-22T23:09:45.245Z,11.68
2023-02-22T23:12:17.948Z,12.15
2023-02-22T23:14:53.304Z,12.45
2023-02-22T23:21:14.854Z,13.45
2023-02-22T23:23:57.760Z,11.70
2023-02-22T23:26:57.768Z,12.55
2023-02-22T23:29:29.838Z,11.55
2023-02-22T23:32:05.790Z,11.38
2023-02-22T23:34:58.750Z,10.50
2023-02-22T23:37:30.262Z,11.80
2023-02-22T23:40:03.928Z,11.57
2023-02-22T23:42:55.590Z,12.75
2023-02-22T23:45:24.261Z,12.68
2023-02-22T23:48:05.193Z,12.25
2023-02-22T23:50:42.108Z,12.00
2023-02-22T23:53:27.769Z,11.00
2023-02-22T23:56:17.016Z,10.38
2023-02-22T23:58:50.427Z,12.10
